Time;durP1;ratioP1;P1;durP2;ratioP2;P2;SDS_P1;SDS_P2;PMS_P1;PMS_P2;Temp;Humidity;BMP_temperature;BMP_pressure;BME280_temperature;BME280_humidity;BME280_pressure;Samples;Min_cycle;Max_cycle;Signal;HPM_P1;HPM_P2
2023/08/11 00:01:17;;;;;;;3.40;1.35;;;;;;;16.32;100.00;96769.81;5035886;28;20216;-69
2023/08/11 00:03:43;;;;;;;1.85;1.35;;;;;;;16.31;100.00;96768.19;5035886;28;20588;-69
2023/08/11 00:06:10;;;;;;;1.67;1.08;;;;;;;16.26;100.00;96778.59;5037849;28;20208;-69
2023/08/11 00:08:38;;;;;;;2.03;1.15;;;;;;;16.38;100.00;96773.53;5038483;28;20248;-69
2023/08/11 00:11:06;;;;;;;2.88;1.40;;;;;;;16.34;100.00;96778.41;5039111;28;20201;-69
2023/08/11 00:13:34;;;;;;;1.63;0.98;;;;;;;16.58;100.00;96777.88;5039199;28;20217;-69
2023/08/11 00:16:02;;;;;;;1.55;1.13;;;;;;;16.41;100.00;96784.59;5038543;28;20202;-69
2023/08/11 00:18:28;;;;;;;2.70;1.27;;;;;;;16.44;100.00;96786.84;5038424;28;20193;-69
2023/08/11 00:20:55;;;;;;;6.22;1.13;;;;;;;16.21;100.00;96782.84;5038999;28;20201;-69
2023/08/11 00:23:21;;;;;;;1.83;1.25;;;;;;;16.21;100.00;96782.84;5039096;28;20221;-69
2023/08/11 00:25:48;;;;;;;2.83;1.33;;;;;;;16.26;100.00;96783.91;5039016;28;20717;-69
2023/08/11 00:28:14;;;;;;;1.92;1.10;;;;;;;16.30;100.00;96787.81;5039077;28;20232;-69
2023/08/11 00:30:42;;;;;;;2.17;1.35;;;;;;;16.30;100.00;96785.16;5038657;28;20212;-69
2023/08/11 00:33:09;;;;;;;7.18;1.58;;;;;;;16.14;100.00;96787.28;5038367;28;20236;-69
2023/08/11 00:35:36;;;;;;;2.47;1.25;;;;;;;16.07;100.00;96789.91;5039104;28;21335;-69
2023/08/11 00:38:03;;;;;;;2.00;1.38;;;;;;;16.22;100.00;96795.13;5038070;28;20686;-69
2023/08/11 00:40:31;;;;;;;3.53;1.23;;;;;;;16.22;100.00;96798.59;5038657;28;20586;-69
2023/08/11 00:42:57;;;;;;;3.63;1.98;;;;;;;16.13;100.00;96791.00;5038475;28;20229;-69
2023/08/11 00:45:24;;;;;;;3.90;1.58;;;;;;;16.09;100.00;96790.56;5039040;28;20204;-69
2023/08/11 00:47:53;;;;;;;1.30;1.20;;;;;;;16.25;100.00;96794.72;5037073;28;20235;-69
2023/08/11 00:50:19;;;;;;;2.25;1.33;;;;;;;16.07;100.00;96786.44;5038500;28;20573;-69
2023/08/11 00:52:46;;;;;;;1.90;1.30;;;;;;;16.09;100.00;96790.56;5038227;28;20225;-69
2023/08/11 00:55:13;;;;;;;2.08;1.33;;;;;;;16.07;100.00;96781.94;5038783;28;20225;-69
2023/08/11 00:57:41;;;;;;;2.30;1.63;;;;;;;16.04;100.00;96778.88;5037939;28;20284;-69
2023/08/11 01:00:12;;;;;;;3.42;1.42;;;;;;;16.00;100.00;96786.41;5038112;28;20212;-69
2023/08/11 01:02:40;;;;;;;2.60;1.55;;;;;;;16.00;100.00;96783.75;5038327;28;20308;-69
2023/08/11 01:05:09;;;;;;;1.90;1.40;;;;;;;16.01;100.00;96788.06;5038067;28;20259;-69
2023/08/11 01:07:41;;;;;;;3.55;1.23;;;;;;;16.07;100.00;96781.13;5037274;28;20225;-69
2023/08/11 01:10:17;;;;;;;2.65;1.48;;;;;;;16.10;100.00;96781.56;5037759;28;20202;-69
2023/08/11 01:12:59;;;;;;;1.67;1.20;;;;;;;16.12;100.00;96774.19;5038475;28;20224;-69
2023/08/11 01:15:31;;;;;;;1.67;1.08;;;;;;;16.09;100.00;96776.44;5038294;28;20212;-69
2023/08/11 01:17:59;;;;;;;3.03;1.30;;;;;;;15.87;100.00;96782.84;5036148;28;20200;-69
2023/08/11 01:20:27;;;;;;;2.10;1.40;;;;;;;15.94;100.00;96776.56;5038033;28;20197;-69
2023/08/11 01:22:58;;;;;;;2.47;1.05;;;;;;;16.07;100.00;96776.63;5038280;28;20228;-69
2023/08/11 01:25:26;;;;;;;2.85;1.60;;;;;;;15.86;100.00;96778.59;5038247;28;20586;-69
2023/08/11 01:27:55;;;;;;;2.65;1.45;;;;;;;15.68;100.00;96782.75;5037015;28;20736;-69
2023/08/11 01:30:22;;;;;;;1.63;1.10;;;;;;;15.72;100.00;96776.03;5037659;28;20723;-69
2023/08/11 01:32:48;;;;;;;2.25;1.50;;;;;;;15.65;100.00;96777.84;5037173;28;20229;-69
2023/08/11 01:35:15;;;;;;;3.42;1.40;;;;;;;15.33;100.00;96776.56;5037541;28;20212;-69
2023/08/11 01:37:43;;;;;;;3.38;1.98;;;;;;;15.05;100.00;96774.09;5036968;28;20205;-69
2023/08/11 01:40:11;;;;;;;4.07;1.63;;;;;;;15.14;100.00;96780.91;5037382;28;20197;-69
2023/08/11 01:42:39;;;;;;;2.03;1.30;;;;;;;15.28;100.00;96778.19;5037287;28;20271;-69
2023/08/11 01:45:07;;;;;;;2.42;1.52;;;;;;;15.48;100.00;96782.63;5038017;28;20911;-68
2023/08/11 01:47:35;;;;;;;3.42;1.88;;;;;;;15.49;100.00;96781.63;5036818;28;20205;-69
2023/08/11 01:50:03;;;;;;;2.80;1.38;;;;;;;15.61;100.00;96784.56;5037133;28;20208;-69
2023/08/11 01:52:31;;;;;;;2.45;1.40;;;;;;;15.37;100.00;96787.66;5037636;28;20217;-69
2023/08/11 01:54:58;;;;;;;4.07;1.70;;;;;;;15.34;100.00;96783.53;5036964;28;20206;-69
2023/08/11 01:57:25;;;;;;;2.22;1.50;;;;;;;15.53;100.00;96790.00;5036581;28;20670;-69
2023/08/11 01:59:52;;;;;;;3.00;1.70;;;;;;;15.63;100.00;96801.94;5036830;28;20680;-69
2023/08/11 02:02:19;;;;;;;4.97;2.00;;;;;;;15.53;100.00;96800.63;5036945;28;20221;-69
2023/08/11 02:04:46;;;;;;;2.50;1.15;;;;;;;15.56;100.00;96801.06;5036934;28;20208;-69
2023/08/11 02:07:12;;;;;;;2.67;1.40;;;;;;;15.55;100.00;96801.25;5036578;28;20662;-69
2023/08/11 02:09:39;;;;;;;2.13;1.50;;;;;;;15.45;100.00;96806.09;5036827;28;20232;-69
2023/08/11 02:12:07;;;;;;;2.65;1.73;;;;;;;15.57;100.00;96804.56;5036664;28;20914;-69
2023/08/11 02:14:33;;;;;;;3.60;1.75;;;;;;;15.49;100.00;96799.38;5037159;28;20201;-69
2023/08/11 02:17:01;;;;;;;1.92;1.08;;;;;;;15.69;100.00;96797.69;5036307;28;20202;-69
2023/08/11 02:19:28;;;;;;;2.35;1.50;;;;;;;15.43;100.00;96802.81;5036375;28;20197;-69
2023/08/11 02:21:55;;;;;;;2.38;1.33;;;;;;;15.25;100.00;96802.47;5036900;28;20197;-69
2023/08/11 02:24:21;;;;;;;4.88;1.30;;;;;;;15.43;100.00;96800.97;5037293;28;20603;-69
2023/08/11 02:26:47;;;;;;;4.32;1.40;;;;;;;15.43;100.00;96802.81;5036741;28;20202;-69
2023/08/11 02:29:14;;;;;;;2.22;1.10;;;;;;;15.47;100.00;96802.22;5035023;28;20224;-69
2023/08/11 02:31:40;;;;;;;1.20;1.02;;;;;;;15.41;100.00;96800.38;5034010;28;20209;-69
2023/08/11 02:34:08;;;;;;;1.90;1.13;;;;;;;15.44;100.00;96799.13;5036420;28;20231;-69
2023/08/11 02:36:36;;;;;;;3.67;1.40;;;;;;;15.30;100.00;96802.72;5036424;28;20206;-69
2023/08/11 02:39:05;;;;;;;1.75;1.15;;;;;;;15.06;100.00;96800.44;5035796;28;20200;-69
2023/08/11 02:41:31;;;;;;;1.45;1.08;;;;;;;15.17;100.00;96796.44;5036188;28;20228;-69
2023/08/11 02:43:58;;;;;;;2.78;0.93;;;;;;;15.04;100.00;96799.78;5036544;28;20225;-68
2023/08/11 02:46:24;;;;;;;3.08;1.42;;;;;;;15.06;100.00;96794.28;5036777;28;20653;-69
2023/08/11 02:48:51;;;;;;;4.93;1.48;;;;;;;15.20;100.00;96798.69;5034584;28;20235;-68
2023/08/11 02:51:19;;;;;;;1.52;1.42;;;;;;;15.35;100.00;96794.97;5036399;28;20661;-69
2023/08/11 02:53:45;;;;;;;2.03;1.20;;;;;;;15.22;100.00;96789.56;5037353;28;20229;-69
2023/08/11 02:56:15;;;;;;;2.15;1.38;;;;;;;15.05;100.00;96782.03;5036169;28;20193;-68
2023/08/11 02:58:41;;;;;;;1.60;1.20;;;;;;;15.14;100.00;96779.06;5034991;28;20622;-68
2023/08/11 03:01:08;;;;;;;2.45;1.27;;;;;;;14.99;100.00;96777.50;5036411;28;20224;-69
2023/08/11 03:03:35;;;;;;;5.10;1.38;;;;;;;14.60;100.00;96776.28;5036305;28;20236;-69
2023/08/11 03:06:04;;;;;;;1.15;0.98;;;;;;;14.60;100.00;96778.94;5035665;28;20207;-69
2023/08/11 03:08:32;;;;;;;2.15;1.48;;;;;;;14.95;100.00;96776.22;5035666;28;20231;-69
2023/08/11 03:10:58;;;;;;;2.13;1.48;;;;;;;14.69;100.00;96782.09;5035794;28;20209;-69
2023/08/11 03:13:28;;;;;;;1.42;1.10;;;;;;;14.82;100.00;96781.44;5036107;28;20228;-70
2023/08/11 03:15:55;;;;;;;3.70;1.80;;;;;;;14.69;100.00;96782.09;5036184;28;20734;-69
2023/08/11 03:18:21;;;;;;;3.47;1.90;;;;;;;14.83;100.00;96778.56;5035274;28;20203;-69
2023/08/11 03:20:48;;;;;;;2.30;1.20;;;;;;;14.87;100.00;96779.84;5036053;28;20208;-69
2023/08/11 03:23:14;;;;;;;3.10;1.58;;;;;;;14.94;100.00;96780.72;5036348;28;20266;-69
2023/08/11 03:25:42;;;;;;;3.08;1.50;;;;;;;15.11;100.00;96775.94;5035941;28;20197;-69
2023/08/11 03:28:09;;;;;;;2.28;1.67;;;;;;;14.84;100.00;96780.22;5034928;28;20205;-69
2023/08/11 03:30:36;;;;;;;3.38;1.90;;;;;;;14.84;100.00;96790.84;5035953;28;20212;-69
2023/08/11 03:33:03;;;;;;;2.13;1.05;;;;;;;14.72;100.00;96794.19;5036057;28;20608;-69
2023/08/11 03:35:30;;;;;;;2.30;1.40;;;;;;;14.55;100.00;96794.59;5036212;28;20201;-69
2023/08/11 03:37:56;;;;;;;1.88;1.25;;;;;;;14.54;100.00;96796.44;5035174;28;20197;-69
2023/08/11 03:40:23;;;;;;;2.78;1.40;;;;;;;14.60;100.00;96803.66;5037063;28;20220;-69
2023/08/11 03:42:52;;;;;;;1.95;1.50;;;;;;;14.83;100.00;96802.47;5039789;28;20221;-69
2023/08/11 03:45:19;;;;;;;2.85;1.77;;;;;;;14.82;100.00;96807.97;5039943;28;20312;-69
2023/08/11 03:47:46;;;;;;;3.85;1.88;;;;;;;14.70;100.00;96797.03;5039047;28;20304;-69
2023/08/11 03:50:12;;;;;;;3.25;1.50;;;;;;;14.72;100.00;96805.59;5039668;28;20221;-69
2023/08/11 03:52:39;;;;;;;3.35;1.48;;;;;;;14.80;100.00;96810.81;5039873;28;20229;-69
2023/08/11 03:55:09;;;;;;;2.00;1.48;;;;;;;14.77;100.00;96805.84;5039401;28;20197;-69
2023/08/11 03:57:36;;;;;;;1.77;1.20;;;;;;;14.74;100.00;96811.56;5039060;28;20205;-69
2023/08/11 04:00:05;;;;;;;2.08;1.15;;;;;;;14.82;100.00;96806.13;5039474;28;20669;-69
2023/08/11 04:02:32;;;;;;;3.40;1.70;;;;;;;14.69;100.00;96815.78;5039733;28;20221;-69
2023/08/11 04:04:58;;;;;;;1.60;1.23;;;;;;;14.65;100.00;96814.53;5039168;28;20212;-69
2023/08/11 04:07:27;;;;;;;5.25;1.48;;;;;;;14.72;100.00;96818.06;5039440;28;20221;-69
2023/08/11 04:09:54;;;;;;;3.58;1.45;;;;;;;14.73;100.00;96815.22;5039015;28;20225;-69
2023/08/11 04:12:20;;;;;;;3.00;1.40;;;;;;;14.70;100.00;96810.28;5039466;28;20223;-69
2023/08/11 04:14:47;;;;;;;3.25;1.10;;;;;;;14.69;100.00;96813.94;5039409;28;20205;-69
2023/08/11 04:17:16;;;;;;;2.28;1.20;;;;;;;14.74;100.00;96816.84;5038730;28;20569;-69
2023/08/11 04:19:43;;;;;;;1.73;1.50;;;;;;;14.63;100.00;96813.06;5038832;28;20224;-69
2023/08/11 04:22:09;;;;;;;1.58;1.17;;;;;;;14.61;100.00;96815.06;5039530;28;20208;-69
2023/08/11 04:24:36;;;;;;;2.60;1.38;;;;;;;14.63;100.00;96824.47;5038959;28;20205;-69
2023/08/11 04:27:03;;;;;;;2.08;1.23;;;;;;;14.62;100.00;96822.03;5038399;28;20197;-69
2023/08/11 04:29:29;;;;;;;2.15;1.48;;;;;;;14.55;100.00;96815.81;5039181;28;20217;-69
2023/08/11 04:31:56;;;;;;;1.75;1.10;;;;;;;14.76;100.00;96814.81;5038548;28;20205;-70
2023/08/11 04:34:24;;;;;;;3.90;1.35;;;;;;;15.03;100.00;96813.25;5038783;28;20217;-70
2023/08/11 04:36:50;;;;;;;4.65;1.83;;;;;;;14.83;100.00;96818.38;5038944;28;20212;-70
2023/08/11 04:39:17;;;;;;;2.60;1.45;;;;;;;14.84;100.00;96816.53;5038609;28;20201;-69
2023/08/11 04:41:43;;;;;;;1.52;0.90;;;;;;;14.79;100.00;96819.78;5038344;28;20225;-69
2023/08/11 04:44:10;;;;;;;3.15;1.70;;;;;;;14.71;100.00;96814.59;5038431;28;20225;-70
2023/08/11 04:46:36;;;;;;;2.00;1.27;;;;;;;14.72;100.00;96821.50;5038614;28;20212;-70
2023/08/11 04:49:03;;;;;;;1.55;1.05;;;;;;;14.93;100.00;96815.41;5037286;28;20702;-70
2023/08/11 04:51:31;;;;;;;1.73;1.08;;;;;;;15.14;100.00;96812.75;5037679;28;21103;-70
2023/08/11 04:54:01;;;;;;;3.95;1.40;;;;;;;15.11;100.00;96816.63;5037703;28;20596;-70
2023/08/11 04:56:28;;;;;;;3.20;1.55;;;;;;;15.10;100.00;96822.13;5038133;28;21094;-70
2023/08/11 04:58:55;;;;;;;1.55;1.08;;;;;;;15.27;100.00;96824.31;5037872;28;20255;-70
2023/08/11 05:01:22;;;;;;;3.17;1.63;;;;;;;15.30;100.00;96824.78;5038658;28;20201;-70
2023/08/11 05:03:50;;;;;;;3.28;1.55;;;;;;;15.41;100.00;96823.44;5038497;28;20229;-69
2023/08/11 05:06:16;;;;;;;3.00;1.45;;;;;;;15.44;100.00;96826.53;5037669;28;20247;-70
2023/08/11 05:08:44;;;;;;;3.15;1.95;;;;;;;15.57;100.00;96825.81;5037394;28;20208;-70
2023/08/11 05:11:11;;;;;;;2.88;1.88;;;;;;;15.41;100.00;96828.75;5037498;28;20205;-70
2023/08/11 05:13:38;;;;;;;3.08;1.45;;;;;;;15.50;100.00;96830.25;5038147;28;20271;-69
2023/08/11 05:16:04;;;;;;;2.25;1.80;;;;;;;15.63;100.00;96833.84;5038190;28;20198;-70
2023/08/11 05:18:31;;;;;;;1.63;1.25;;;;;;;15.53;100.00;96832.50;5037330;28;20695;-70
2023/08/11 05:20:57;;;;;;;4.25;2.13;;;;;;;15.69;100.00;96837.53;5037938;28;20193;-70
2023/08/11 05:23:24;;;;;;;2.42;1.60;;;;;;;15.84;100.00;96839.88;5037760;28;20217;-70
2023/08/11 05:25:52;;;;;;;3.38;1.58;;;;;;;16.07;100.00;96843.09;5037581;28;20204;-70
2023/08/11 05:28:18;;;;;;;2.85;1.70;;;;;;;16.02;100.00;96836.72;5037044;28;20202;-69
2023/08/11 05:30:45;;;;;;;5.45;1.83;;;;;;;16.04;100.00;96843.50;5037298;28;20304;-70
2023/08/11 05:33:12;;;;;;;3.47;2.05;;;;;;;16.10;100.00;96840.06;5037061;28;20224;-70
2023/08/11 05:35:40;;;;;;;1.45;1.00;;;;;;;16.42;100.00;96838.59;5037662;28;20819;-70
2023/08/11 05:38:06;;;;;;;3.50;1.63;;;;;;;16.29;100.00;96842.00;5037058;28;20861;-70
2023/08/11 05:40:33;;;;;;;3.60;2.33;;;;;;;16.36;100.00;96840.22;5037749;28;20204;-70
2023/08/11 05:43:01;;;;;;;4.05;2.30;;;;;;;16.66;100.00;96838.91;5037982;28;20232;-70
2023/08/11 05:45:27;;;;;;;3.72;2.13;;;;;;;16.51;100.00;96840.91;5037302;28;21379;-70
2023/08/11 05:47:54;;;;;;;4.28;2.20;;;;;;;16.59;100.00;96841.53;5036289;28;20204;-70
2023/08/11 05:50:20;;;;;;;5.15;2.50;;;;;;;16.81;100.00;96840.38;5037236;28;21212;-70
2023/08/11 05:52:47;;;;;;;6.60;2.53;;;;;;;16.91;100.00;96845.34;5038544;28;20217;-69
2023/08/11 05:55:14;;;;;;;3.85;2.70;;;;;;;16.89;100.00;96842.03;5036909;28;20212;-70
2023/08/11 05:57:40;;;;;;;8.98;2.13;;;;;;;16.89;100.00;96845.53;5036226;28;20569;-70
2023/08/11 06:00:09;;;;;;;4.78;2.38;;;;;;;17.22;100.00;96843.72;5037704;28;20201;-70
2023/08/11 06:02:36;;;;;;;5.63;2.70;;;;;;;17.07;100.00;96850.28;5037007;28;20287;-70
2023/08/11 06:05:02;;;;;;;2.60;2.00;;;;;;;17.11;100.00;96847.81;5036390;28;20892;-70
2023/08/11 06:07:29;;;;;;;7.60;2.75;;;;;;;17.02;100.00;96847.38;5036327;28;20205;-69
2023/08/11 06:09:56;;;;;;;3.85;1.90;;;;;;;17.08;100.00;96849.25;5036979;28;20960;-70
2023/08/11 06:12:22;;;;;;;3.70;2.35;;;;;;;17.23;100.00;96846.22;5036294;28;20221;-70
2023/08/11 06:14:49;;;;;;;4.53;2.60;;;;;;;17.18;100.00;96846.00;5036439;28;20213;-70
2023/08/11 06:17:17;;;;;;;2.83;1.73;;;;;;;17.32;100.00;96842.38;5035247;28;20204;-70
2023/08/11 06:19:43;;;;;;;7.95;3.03;;;;;;;17.27;100.00;96836.81;5036387;28;20205;-70
2023/08/11 06:22:10;;;;;;;5.28;3.13;;;;;;;17.47;100.00;96837.66;5036271;28;20211;-69
2023/08/11 06:24:36;;;;;;;4.57;2.47;;;;;;;17.58;100.00;96846.88;5036419;28;20608;-70
2023/08/11 06:27:03;;;;;;;4.13;2.45;;;;;;;17.76;100.00;96851.38;5035335;28;20208;-69
2023/08/11 06:29:30;;;;;;;4.63;2.50;;;;;;;17.52;100.00;96853.84;5036328;28;20259;-70
2023/08/11 06:31:56;;;;;;;6.60;2.92;;;;;;;17.73;100.00;96856.28;5035889;28;20204;-70
2023/08/11 06:34:24;;;;;;;3.35;2.15;;;;;;;18.05;100.00;96856.28;5036531;28;20381;-70
2023/08/11 06:36:51;;;;;;;5.50;2.35;;;;;;;17.97;100.00;96851.16;5036080;28;20603;-70
2023/08/11 06:39:17;;;;;;;5.47;2.40;;;;;;;18.13;100.00;96840.03;5035795;28;20209;-70
2023/08/11 06:41:44;;;;;;;7.82;2.65;;;;;;;18.14;100.00;96851.50;5035212;28;20681;-70
2023/08/11 06:44:10;;;;;;;4.13;2.67;;;;;;;18.21;100.00;96847.03;5035465;28;20233;-70
2023/08/11 06:46:37;;;;;;;3.55;2.33;;;;;;;18.33;100.00;96852.34;5036051;28;20200;-70
2023/08/11 06:49:04;;;;;;;6.05;2.90;;;;;;;18.33;100.00;96850.69;5034855;28;20224;-70
2023/08/11 06:51:31;;;;;;;4.68;2.50;;;;;;;18.51;100.00;96854.34;5035500;28;20665;-70
2023/08/11 06:53:58;;;;;;;5.32;2.60;;;;;;;18.33;100.00;96856.84;5035524;28;20693;-70
2023/08/11 06:56:25;;;;;;;7.13;2.30;;;;;;;18.59;100.00;96862.09;5036172;28;20227;-70
2023/08/11 06:58:52;;;;;;;5.07;3.13;;;;;;;18.86;100.00;96858.28;5035225;28;20312;-70
2023/08/11 07:01:18;;;;;;;5.88;2.40;;;;;;;18.99;100.00;96859.88;5036250;28;20211;-70
2023/08/11 07:03:45;;;;;;;7.18;2.63;;;;;;;19.08;100.00;96855.94;5035951;28;20220;-70
2023/08/11 07:06:12;;;;;;;3.92;2.22;;;;;;;19.11;100.00;96852.03;5035595;28;20572;-70
2023/08/11 07:08:40;;;;;;;3.88;2.65;;;;;;;19.38;100.00;96858.84;5035172;28;20216;-70
2023/08/11 07:11:07;;;;;;;9.25;2.70;;;;;;;19.43;100.00;96856.34;5035716;28;20217;-70
2023/08/11 07:13:33;;;;;;;6.50;3.00;;;;;;;19.61;100.00;96857.22;5035906;28;20221;-70
2023/08/11 07:16:00;;;;;;;4.60;2.22;;;;;;;19.67;100.00;96854.47;5038934;28;20200;-71
2023/08/11 07:18:27;;;;;;;3.42;2.13;;;;;;;19.75;100.00;96851.53;5039310;28;20672;-70
2023/08/11 07:20:53;;;;;;;5.03;2.72;;;;;;;19.66;100.00;96852.03;5039306;28;21042;-70
2023/08/11 07:23:20;;;;;;;3.70;2.38;;;;;;;19.98;100.00;96859.78;5040583;28;20217;-70
2023/08/11 07:25:48;;;;;;;6.07;2.40;;;;;;;20.16;100.00;96854.47;5040168;28;20212;-70
2023/08/11 07:28:14;;;;;;;4.40;3.00;;;;;;;20.04;100.00;96850.88;5038626;28;20212;-70
2023/08/11 07:30:41;;;;;;;4.70;2.88;;;;;;;20.11;100.00;96850.81;5040393;28;20267;-70
2023/08/11 07:33:07;;;;;;;3.90;2.30;;;;;;;20.31;100.00;96850.44;5039885;28;20232;-71
2023/08/11 07:35:34;;;;;;;4.50;2.40;;;;;;;20.49;100.00;96855.78;5038933;28;20216;-70
2023/08/11 07:38:00;;;;;;;7.72;3.15;;;;;;;20.48;100.00;96854.13;5038691;28;20208;-71
2023/08/11 07:40:27;;;;;;;8.48;3.25;;;;;;;20.69;100.00;96853.66;5039553;28;20204;-70
2023/08/11 07:42:55;;;;;;;10.45;2.17;;;;;;;20.97;100.00;96857.47;5038753;28;20221;-70
2023/08/11 07:45:21;;;;;;;5.32;2.53;;;;;;;21.00;100.00;96857.03;5039179;28;21057;-70
2023/08/11 07:47:48;;;;;;;3.60;2.10;;;;;;;21.11;100.00;96853.56;5038356;28;20202;-71
2023/08/11 07:50:15;;;;;;;4.75;2.30;;;;;;;21.27;100.00;96854.78;5038903;28;20233;-71
2023/08/11 07:52:41;;;;;;;8.57;2.25;;;;;;;21.39;100.00;96848.41;5038614;28;20277;-71
2023/08/11 07:55:08;;;;;;;4.63;2.10;;;;;;;21.55;100.00;96850.50;5038837;28;20319;-71
2023/08/11 07:57:35;;;;;;;3.58;2.03;;;;;;;21.34;100.00;96853.66;5037796;28;20670;-71
2023/08/11 08:00:05;;;;;;;2.70;1.75;;;;;;;21.65;100.00;96854.22;5038477;28;20197;-71
2023/08/11 08:02:31;;;;;;;4.35;2.70;;;;;;;21.83;100.00;96853.31;5037866;28;20235;-71
2023/08/11 08:04:58;;;;;;;4.13;2.55;;;;;;;21.85;100.00;96849.34;5038693;28;20207;-71
2023/08/11 08:07:24;;;;;;;4.07;2.17;;;;;;;22.06;100.00;96857.66;5038671;28;20208;-71
2023/08/11 08:09:51;;;;;;;4.35;2.30;;;;;;;22.31;100.00;96855.59;5039414;28;20228;-70
2023/08/11 08:12:18;;;;;;;6.45;2.75;;;;;;;22.38;100.00;96860.84;5039387;28;20232;-71
2023/08/11 08:14:44;;;;;;;4.18;2.10;;;;;;;22.38;100.00;96867.03;5039444;28;20201;-71
2023/08/11 08:17:12;;;;;;;3.80;2.20;;;;;;;22.44;100.00;96860.72;5038923;28;20201;-71
2023/08/11 08:19:39;;;;;;;4.07;2.15;;;;;;;22.59;100.00;96871.78;5038180;28;20201;-71
2023/08/11 08:22:05;;;;;;;5.10;2.40;;;;;;;22.71;100.00;96867.22;5038162;28;20207;-71
2023/08/11 08:24:32;;;;;;;3.90;2.05;;;;;;;22.83;100.00;96868.00;5039003;28;20202;-71
2023/08/11 08:26:58;;;;;;;4.50;2.35;;;;;;;22.90;100.00;96868.69;5037888;28;20582;-71
2023/08/11 08:29:25;;;;;;;4.00;2.08;;;;;;;22.91;100.00;96873.00;5038653;28;20629;-71
2023/08/11 08:31:52;;;;;;;4.55;2.28;;;;;;;23.09;100.00;96878.22;5038100;28;20412;-71
2023/08/11 08:34:19;;;;;;;4.45;2.10;;;;;;;23.31;100.00;96869.28;5038544;28;20229;-71
2023/08/11 08:36:46;;;;;;;4.60;1.85;;;;;;;23.24;100.00;96868.59;5033366;28;20208;-71
2023/08/11 08:39:13;;;;;;;4.50;2.47;;;;;;;23.49;100.00;96874.44;5036355;28;20201;-71
2023/08/11 08:41:41;;;;;;;4.75;2.25;;;;;;;23.33;100.00;96870.66;5037066;28;21025;-71
2023/08/11 08:44:08;;;;;;;4.28;1.60;;;;;;;23.60;95.08;96878.94;5037453;28;20221;-71
2023/08/11 08:46:35;;;;;;;3.90;2.08;;;;;;;23.80;93.11;96872.06;5037274;28;20207;-71
2023/08/11 08:49:12;;;;;;;3.15;1.70;;;;;;;23.88;90.34;96878.91;5036258;28;20201;-71
2023/08/11 08:51:41;;;;;;;2.67;1.50;;;;;;;23.99;98.28;96879.69;5036657;28;20257;-71
2023/08/11 08:54:09;;;;;;;4.30;1.63;;;;;;;23.78;99.31;96873.34;5037129;28;20225;-71
2023/08/11 08:56:37;;;;;;;3.47;1.42;;;;;;;23.75;94.43;96877.38;5037146;28;20284;-71
2023/08/11 08:59:03;;;;;;;3.42;2.10;;;;;;;24.16;92.83;96871.56;5035222;28;20197;-71
2023/08/11 09:01:30;;;;;;;2.75;1.35;;;;;;;24.31;89.13;96882.59;5036556;28;20202;-71
2023/08/11 09:03:58;;;;;;;3.67;1.60;;;;;;;24.21;84.54;96877.88;5036341;28;21283;-71
2023/08/11 09:06:26;;;;;;;3.20;2.00;;;;;;;24.48;88.19;96873.47;5036932;28;20980;-71
2023/08/11 09:08:54;;;;;;;2.92;1.55;;;;;;;24.68;90.29;96879.94;5036103;28;20205;-71
2023/08/11 09:11:21;;;;;;;3.20;1.83;;;;;;;24.80;85.46;96872.56;5035661;28;20221;-71
2023/08/11 09:13:48;;;;;;;3.08;1.55;;;;;;;24.88;79.77;96880.19;5036350;28;20221;-71
2023/08/11 09:16:15;;;;;;;4.88;1.23;;;;;;;24.90;81.49;96877.28;5035865;28;20661;-71
2023/08/11 09:18:44;;;;;;;3.22;1.63;;;;;;;25.18;81.45;96875.22;5035440;28;20201;-71
2023/08/11 09:21:10;;;;;;;2.53;1.33;;;;;;;25.05;82.19;96869.38;5035080;28;20202;-71
2023/08/11 09:23:37;;;;;;;5.57;1.60;;;;;;;25.41;81.41;96874.94;5035755;28;20263;-71
2023/08/11 09:26:05;;;;;;;4.53;1.42;;;;;;;25.41;80.34;96864.94;5034819;28;20201;-71
2023/08/11 09:28:32;;;;;;;3.55;1.60;;;;;;;25.40;81.23;96867.91;5034909;28;20308;-71
2023/08/11 09:30:58;;;;;;;4.82;2.20;;;;;;;25.42;81.08;96863.06;5035142;28;20225;-71
2023/08/11 09:33:25;;;;;;;2.90;1.45;;;;;;;25.68;80.23;96864.97;5034959;28;21333;-71
2023/08/11 09:35:53;;;;;;;4.65;1.70;;;;;;;26.04;82.02;96855.06;5035474;28;20260;-71
2023/08/11 09:38:20;;;;;;;3.05;1.40;;;;;;;25.74;80.79;96855.84;5034399;28;20209;-71
2023/08/11 09:40:47;;;;;;;3.03;1.60;;;;;;;26.03;79.98;96849.88;5035115;28;20669;-72
2023/08/11 09:43:15;;;;;;;1.80;1.10;;;;;;;26.33;74.32;96853.63;5035297;28;20291;-71
2023/08/11 09:45:42;;;;;;;1.85;1.20;;;;;;;26.01;73.14;96850.16;5035129;28;20203;-71
2023/08/11 09:48:09;;;;;;;5.10;1.08;;;;;;;26.53;73.75;96851.09;5034965;28;20699;-71
2023/08/11 09:50:39;;;;;;;2.15;1.25;;;;;;;26.93;70.05;96843.19;5035432;28;20229;-71
2023/08/11 09:53:06;;;;;;;6.00;1.48;;;;;;;26.78;66.29;96851.22;5034985;28;20221;-71
2023/08/11 09:55:33;;;;;;;2.55;1.33;;;;;;;26.75;71.27;96841.75;5034792;28;20205;-71
2023/08/11 09:58:02;;;;;;;3.58;1.33;;;;;;;27.06;71.12;96840.03;5034328;28;20670;-71
2023/08/11 10:00:31;;;;;;;3.92;1.55;;;;;;;27.19;73.20;96838.44;5035747;28;20204;-72
2023/08/11 10:03:02;;;;;;;2.53;1.20;;;;;;;27.36;70.51;96833.63;5035022;28;20697;-71
2023/08/11 10:05:31;;;;;;;1.88;1.20;;;;;;;27.53;65.02;96828.78;5035543;28;20197;-71
2023/08/11 10:07:59;;;;;;;3.13;1.70;;;;;;;27.70;66.95;96832.09;5034186;28;20258;-71
2023/08/11 10:10:27;;;;;;;1.88;1.17;;;;;;;27.80;65.92;96832.91;5034536;28;20255;-71
2023/08/11 10:12:59;;;;;;;1.88;1.30;;;;;;;28.08;65.97;96828.84;5035120;28;20225;-71
2023/08/11 10:15:28;;;;;;;2.47;1.40;;;;;;;27.69;64.78;96833.19;5035079;28;20205;-71
2023/08/11 10:17:56;;;;;;;4.13;1.65;;;;;;;27.60;66.33;96823.16;5034015;28;20209;-72
2023/08/11 10:20:23;;;;;;;3.25;1.40;;;;;;;27.49;65.85;96829.59;5034541;28;20201;-72
2023/08/11 10:22:50;;;;;;;2.13;1.27;;;;;;;28.01;64.49;96822.91;5034667;28;20221;-72
2023/08/11 10:25:17;;;;;;;3.13;1.48;;;;;;;28.03;66.43;96824.25;5035139;28;20198;-72
2023/08/11 10:27:45;;;;;;;2.65;1.35;;;;;;;27.94;63.56;96820.47;5034420;28;20208;-72
2023/08/11 10:30:15;;;;;;;2.55;1.63;;;;;;;28.53;65.62;96819.59;5034955;28;20843;-72
2023/08/11 10:32:41;;;;;;;2.33;1.42;;;;;;;28.70;63.45;96819.28;5035166;28;20237;-72
2023/08/11 10:35:17;;;;;;;3.10;1.30;;;;;;;29.03;63.54;96830.31;5034998;28;20209;-72
2023/08/11 10:37:44;;;;;;;2.90;1.42;;;;;;;28.69;62.87;96826.63;5033787;28;20649;-72
2023/08/11 10:40:11;;;;;;;5.88;1.58;;;;;;;27.81;64.33;96825.59;5034973;28;21796;-72
2023/08/11 10:42:38;;;;;;;4.32;1.55;;;;;;;28.13;61.49;96820.72;5034473;28;20213;-71
2023/08/11 10:45:09;;;;;;;3.67;1.08;;;;;;;28.55;61.23;96820.13;5034421;28;20197;-72
2023/08/11 10:47:37;;;;;;;1.60;1.25;;;;;;;28.31;61.08;96826.44;5034155;28;20197;-72
2023/08/11 10:50:04;;;;;;;2.55;1.42;;;;;;;28.35;61.99;96822.88;5032917;28;20213;-72
2023/08/11 10:52:34;;;;;;;2.13;1.30;;;;;;;28.67;60.19;96826.06;5034594;28;20240;-72
2023/08/11 10:55:02;;;;;;;3.42;1.23;;;;;;;28.66;59.83;96823.63;5034544;28;20202;-72
2023/08/11 10:57:30;;;;;;;3.05;1.02;;;;;;;28.62;56.86;96822.56;5034824;28;20200;-71
2023/08/11 10:59:57;;;;;;;3.28;1.30;;;;;;;28.94;56.44;96821.13;5034446;28;21178;-71
2023/08/11 11:02:24;;;;;;;2.60;1.08;;;;;;;28.99;57.97;96823.81;5034513;28;20217;-71
2023/08/11 11:04:52;;;;;;;1.88;1.08;;;;;;;29.10;59.00;96825.41;5035467;28;20197;-71
2023/08/11 11:07:21;;;;;;;1.85;1.00;;;;;;;29.32;60.93;96817.72;5034585;28;20255;-72
2023/08/11 11:09:51;;;;;;;1.92;1.30;;;;;;;29.22;59.00;96818.53;5034312;28;20212;-72
2023/08/11 11:12:17;;;;;;;1.17;0.90;;;;;;;28.96;56.41;96818.94;5034114;28;20245;-71
2023/08/11 11:14:44;;;;;;;2.05;1.13;;;;;;;28.86;56.88;96810.00;5034930;28;20646;-72
2023/08/11 11:17:11;;;;;;;1.65;1.05;;;;;;;29.08;58.81;96816.72;5033728;28;20208;-72
2023/08/11 11:19:38;;;;;;;2.20;1.30;;;;;;;29.13;58.66;96813.97;5034354;28;20211;-72
2023/08/11 11:22:04;;;;;;;1.60;1.05;;;;;;;29.55;58.74;96812.41;5034330;28;20197;-72
2023/08/11 11:24:32;;;;;;;2.67;1.15;;;;;;;29.73;58.07;96800.84;5033982;28;20210;-72
2023/08/11 11:27:00;;;;;;;1.58;1.25;;;;;;;29.60;57.07;96798.78;5034014;28;20214;-72